createdAt,value
2019-03-15T00:01:42.308Z,90.11
2019-03-15T00:04:11.716Z,90.21
2019-03-15T00:06:41.031Z,89.90
2019-03-15T00:09:10.472Z,90.06
2019-03-15T00:11:39.855Z,89.98
2019-03-15T00:14:09.231Z,89.89
2019-03-15T00:16:38.569Z,89.91
2019-03-15T00:19:07.956Z,90.03
2019-03-15T00:21:37.356Z,89.88
2019-03-15T00:24:06.732Z,89.80
2019-03-15T00:26:36.176Z,89.68
2019-03-15T00:29:05.531Z,89.48
2019-03-15T00:31:34.949Z,89.60
2019-03-15T00:34:04.376Z,89.74
2019-03-15T00:36:33.699Z,89.86
2019-03-15T00:39:03.142Z,90.05
2019-03-15T00:41:32.541Z,89.71
2019-03-15T00:44:01.988Z,89.65
2019-03-15T00:46:31.426Z,89.76
2019-03-15T00:49:00.794Z,89.47
2019-03-15T00:51:30.121Z,89.37
2019-03-15T00:53:59.510Z,89.45
2019-03-15T00:56:28.940Z,89.36
2019-03-15T00:58:58.338Z,89.27
2019-03-15T01:01:27.715Z,89.31
2019-03-15T01:03:57.113Z,89.65
2019-03-15T01:06:26.498Z,89.75
2019-03-15T01:08:55.924Z,89.63
2019-03-15T01:11:25.307Z,89.60
2019-03-15T01:13:54.688Z,89.47
2019-03-15T01:16:24.017Z,89.15
2019-03-15T01:18:53.452Z,89.01
2019-03-15T01:21:22.847Z,88.92
2019-03-15T01:23:52.228Z,88.85
2019-03-15T01:26:21.672Z,88.78
2019-03-15T01:28:51.007Z,88.99
2019-03-15T01:31:20.363Z,88.98
2019-03-15T01:33:50.081Z,89.21
2019-03-15T01:36:19.658Z,88.99
2019-03-15T01:38:49.035Z,89.20
2019-03-15T01:41:18.375Z,89.43
2019-03-15T01:43:47.766Z,89.22
2019-03-15T01:46:17.174Z,89.27
2019-03-15T01:48:46.518Z,89.26
2019-03-15T01:51:15.894Z,89.18
2019-03-15T01:53:45.263Z,89.37
2019-03-15T01:56:14.625Z,89.25
2019-03-15T01:58:44.262Z,89.09
2019-03-15T02:01:13.730Z,89.44
2019-03-15T02:03:43.187Z,89.59
2019-03-15T02:06:12.560Z,89.83
2019-03-15T02:08:41.939Z,89.61
2019-03-15T02:11:11.325Z,89.48
2019-03-15T02:13:40.672Z,89.42
2019-03-15T02:16:10.086Z,89.48
2019-03-15T02:18:39.427Z,89.31
2019-03-15T02:21:08.754Z,89.08
2019-03-15T02:23:38.140Z,88.79
2019-03-15T02:26:07.863Z,88.57
2019-03-15T02:28:37.201Z,88.75
2019-03-15T02:31:06.651Z,88.99
2019-03-15T02:33:35.975Z,89.44
2019-03-15T02:36:05.374Z,89.68
2019-03-15T02:38:34.763Z,89.96
2019-03-15T02:41:05.035Z,89.93
2019-03-15T02:43:34.647Z,89.91
2019-03-15T02:46:04.091Z,90.07
2019-03-15T02:48:33.425Z,89.91
2019-03-15T02:51:02.769Z,89.77
2019-03-15T02:53:32.196Z,89.56
2019-03-15T02:56:01.666Z,89.38
2019-03-15T02:58:31.097Z,89.46
2019-03-15T03:01:00.421Z,89.47
2019-03-15T03:03:29.931Z,89.67
2019-03-15T03:05:59.239Z,90.10
2019-03-15T03:08:28.656Z,90.56
2019-03-15T03:10:58.031Z,90.66
2019-03-15T03:13:27.392Z,90.69
2019-03-15T03:15:56.787Z,90.50
2019-03-15T03:18:26.135Z,90.40
2019-03-15T03:20:55.524Z,90.62
2019-03-15T03:23:24.907Z,90.51
2019-03-15T03:25:54.389Z,90.49
2019-03-15T03:28:23.727Z,90.54
2019-03-15T03:30:53.047Z,90.61
2019-03-15T03:33:22.409Z,90.34
2019-03-15T03:35:51.797Z,90.31
2019-03-15T03:38:21.212Z,90.21
2019-03-15T03:40:50.552Z,90.12
2019-03-15T03:43:19.970Z,90.67
2019-03-15T03:45:49.364Z,91.04
2019-03-15T03:48:18.823Z,90.86
2019-03-15T03:50:48.204Z,90.81
2019-03-15T03:53:17.708Z,90.74
2019-03-15T03:55:47.029Z,91.09
2019-03-15T03:58:16.383Z,90.79
2019-03-15T04:00:45.825Z,90.96
2019-03-15T04:03:15.494Z,90.77
2019-03-15T04:05:45.108Z,90.60
2019-03-15T04:08:14.736Z,90.59
2019-03-15T04:10:44.049Z,90.42
2019-03-15T04:13:13.414Z,90.47
2019-03-15T04:15:42.837Z,90.36
2019-03-15T04:18:12.412Z,90.11
2019-03-15T04:20:42.475Z,89.88
2019-03-15T04:23:11.976Z,89.72
2019-03-15T04:25:41.282Z,89.87
2019-03-15T04:28:10.630Z,90.10
2019-03-15T04:30:40.072Z,89.95
2019-03-15T04:33:09.456Z,89.97
2019-03-15T04:35:38.914Z,90.36
2019-03-15T04:38:08.254Z,90.16
2019-03-15T04:40:37.661Z,90.27
2019-03-15T04:43:07.029Z,90.33
2019-03-15T04:45:36.462Z,90.59
2019-03-15T04:48:05.763Z,90.37
2019-03-15T04:50:35.125Z,90.34
2019-03-15T04:53:04.620Z,90.52
2019-03-15T04:55:34.010Z,91.25
2019-03-15T04:58:03.505Z,91.44
2019-03-15T05:00:32.787Z,91.87
2019-03-15T05:03:02.196Z,91.68
2019-03-15T05:05:31.667Z,91.55
2019-03-15T05:08:01.116Z,91.39
2019-03-15T05:10:30.495Z,91.18
2019-03-15T05:12:59.895Z,91.07
2019-03-15T05:15:29.368Z,91.03
2019-03-15T05:17:58.872Z,91.33
2019-03-15T05:20:28.460Z,91.22
2019-03-15T05:22:57.827Z,91.00
2019-03-15T05:25:29.675Z,90.84
2019-03-15T05:27:58.513Z,90.76
2019-03-15T05:30:27.837Z,90.93
2019-03-15T05:32:57.261Z,91.24
2019-03-15T05:35:26.653Z,91.49
2019-03-15T05:37:56.030Z,91.27
2019-03-15T05:40:25.344Z,91.21
2019-03-15T05:42:54.815Z,91.08
2019-03-15T05:45:24.234Z,90.80
2019-03-15T05:47:53.640Z,90.77
2019-03-15T05:50:23.004Z,90.59
2019-03-15T05:52:52.390Z,90.39
2019-03-15T05:55:21.784Z,90.35
2019-03-15T05:57:51.163Z,90.37
2019-03-15T06:00:20.650Z,90.34
2019-03-15T06:02:49.998Z,90.20
2019-03-15T06:05:19.371Z,89.94
2019-03-15T06:07:48.942Z,89.93
2019-03-15T06:10:18.353Z,90.25
2019-03-15T06:12:47.799Z,90.27
2019-03-15T06:15:17.172Z,90.33
2019-03-15T06:17:46.602Z,90.07
2019-03-15T06:20:15.995Z,90.10
2019-03-15T06:22:45.386Z,89.96
2019-03-15T06:25:14.739Z,89.80
2019-03-15T06:27:44.147Z,89.50
2019-03-15T06:30:13.554Z,89.78
2019-03-15T06:32:42.929Z,89.80
2019-03-15T06:35:12.552Z,89.54
2019-03-15T06:37:42.028Z,89.30
2019-03-15T06:40:13.643Z,88.83
2019-03-15T06:42:43.053Z,88.61
2019-03-15T06:45:12.679Z,88.61
2019-03-15T06:47:42.039Z,88.26
2019-03-15T06:50:11.827Z,88.09
2019-03-15T06:52:41.244Z,88.30
2019-03-15T06:55:10.806Z,88.08
2019-03-15T06:57:40.236Z,87.76
2019-03-15T07:00:10.048Z,87.30
2019-03-15T07:02:39.405Z,87.03
2019-03-15T07:05:11.873Z,87.45
2019-03-15T07:07:40.263Z,87.42
2019-03-15T07:10:09.815Z,87.69
2019-03-15T07:12:40.395Z,87.23
2019-03-15T07:15:10.436Z,86.91
2019-03-15T07:17:39.831Z,86.45
2019-03-15T07:20:09.879Z,85.92
2019-03-15T07:22:39.294Z,85.29
2019-03-15T07:25:09.026Z,85.37
2019-03-15T07:27:38.372Z,85.03
2019-03-15T07:30:09.043Z,84.56
2019-03-15T07:32:38.608Z,83.76
2019-03-15T07:35:07.928Z,83.34
2019-03-15T07:37:37.334Z,83.13
2019-03-15T07:40:07.272Z,83.16
2019-03-15T07:42:36.649Z,83.37
2019-03-15T07:45:06.326Z,83.21
2019-03-15T07:47:35.780Z,82.95
2019-03-15T07:50:05.642Z,82.92
2019-03-15T07:52:35.124Z,82.45
2019-03-15T07:55:04.686Z,81.89
2019-03-15T07:57:34.072Z,81.69
2019-03-15T08:00:03.547Z,80.96
2019-03-15T08:02:33.209Z,80.50
2019-03-15T08:05:02.534Z,80.13
2019-03-15T08:07:36.553Z,79.45
2019-03-15T08:10:03.432Z,79.30
2019-03-15T08:12:33.280Z,77.98
2019-03-15T08:15:02.660Z,77.14
2019-03-15T08:17:32.592Z,76.91
2019-03-15T08:20:02.230Z,75.68
2019-03-15T08:22:31.762Z,75.85
2019-03-15T08:25:01.158Z,75.14
2019-03-15T08:27:30.516Z,75.06
2019-03-15T08:30:00.405Z,74.08
2019-03-15T08:32:29.834Z,73.96
2019-03-15T08:34:59.163Z,74.54
2019-03-15T08:37:28.524Z,73.35
2019-03-15T08:39:57.890Z,73.19
2019-03-15T08:42:27.250Z,74.13
2019-03-15T08:44:56.667Z,74.30
2019-03-15T08:47:26.023Z,73.04
2019-03-15T08:49:55.417Z,72.96
2019-03-15T08:52:24.753Z,73.42
2019-03-15T08:55:04.710Z,74.35
2019-03-15T08:57:25.422Z,73.89
2019-03-15T08:59:57.761Z,74.27
2019-03-15T09:02:26.543Z,74.93
2019-03-15T09:04:55.923Z,74.37
2019-03-15T09:07:25.275Z,73.60
2019-03-15T09:09:54.682Z,72.89
2019-03-15T09:12:25.187Z,71.75
2019-03-15T09:14:54.684Z,70.70
2019-03-15T09:17:24.118Z,70.91
2019-03-15T09:19:53.589Z,71.56
2019-03-15T09:22:22.942Z,71.55
2019-03-15T09:24:52.346Z,71.23
2019-03-15T09:27:21.875Z,71.85
2019-03-15T09:29:51.266Z,71.42
2019-03-15T09:32:20.639Z,70.27
2019-03-15T09:34:50.017Z,69.77
2019-03-15T09:37:19.492Z,69.64
2019-03-15T09:39:49.045Z,70.15
2019-03-15T09:42:18.490Z,69.99
2019-03-15T09:44:47.886Z,69.81
2019-03-15T09:47:17.304Z,69.00
2019-03-15T09:49:46.676Z,70.00
2019-03-15T09:52:16.129Z,70.37
2019-03-15T09:54:45.600Z,70.34
2019-03-15T09:57:14.983Z,70.79
2019-03-15T09:59:44.417Z,70.40
2019-03-15T10:02:13.765Z,70.72
2019-03-15T10:04:43.302Z,68.62
2019-03-15T10:07:12.832Z,68.43
2019-03-15T10:09:46.226Z,69.09
2019-03-15T10:12:13.278Z,67.85
2019-03-15T10:14:42.712Z,68.18
2019-03-15T10:17:12.094Z,67.04
2019-03-15T10:19:41.583Z,63.73
2019-03-15T10:22:10.957Z,66.09
2019-03-15T10:24:40.300Z,64.04
2019-03-15T10:27:09.653Z,66.21
2019-03-15T10:29:39.069Z,64.80
2019-03-15T10:32:08.443Z,66.24
2019-03-15T10:34:37.809Z,66.16
2019-03-15T10:37:07.224Z,67.17
2019-03-15T10:39:36.666Z,66.17
2019-03-15T10:42:06.108Z,66.75
2019-03-15T10:44:35.513Z,67.95
2019-03-15T10:47:04.929Z,67.10
2019-03-15T10:49:34.546Z,67.04
2019-03-15T10:52:04.006Z,67.66
2019-03-15T10:54:33.455Z,68.39
2019-03-15T10:57:02.921Z,67.80
2019-03-15T10:59:32.360Z,67.52
2019-03-15T11:02:01.966Z,67.53
2019-03-15T11:04:31.359Z,67.39
2019-03-15T11:07:00.794Z,67.21
2019-03-15T11:09:30.127Z,67.81
2019-03-15T11:11:59.582Z,66.92
2019-03-15T11:14:28.979Z,66.09
2019-03-15T11:16:58.369Z,62.85
2019-03-15T11:19:27.869Z,62.97
2019-03-15T11:21:57.225Z,63.88
2019-03-15T11:24:26.588Z,63.86
2019-03-15T11:26:56.056Z,62.91
2019-03-15T11:29:25.436Z,62.57
2019-03-15T11:31:54.781Z,63.67
2019-03-15T11:34:24.282Z,63.68
2019-03-15T11:36:58.566Z,63.88
2019-03-15T11:39:24.694Z,65.16
2019-03-15T11:41:54.083Z,64.67
2019-03-15T11:44:23.448Z,64.62
2019-03-15T11:46:53.074Z,65.20
2019-03-15T11:49:22.576Z,65.76
2019-03-15T11:51:51.995Z,65.88
2019-03-15T11:54:21.360Z,65.11
2019-03-15T11:56:51.057Z,66.15
2019-03-15T11:59:20.339Z,67.30
2019-03-15T12:02:03.170Z,67.23
2019-03-15T12:04:20.736Z,68.91
2019-03-15T12:06:50.220Z,69.81
2019-03-15T12:09:19.733Z,69.36
2019-03-15T12:11:49.079Z,69.17
2019-03-15T12:14:18.733Z,70.24
2019-03-15T12:16:48.422Z,70.08
2019-03-15T12:19:17.923Z,70.75
2019-03-15T12:21:47.529Z,71.86
2019-03-15T12:24:17.057Z,73.33
2019-03-15T12:26:46.595Z,73.55
2019-03-15T12:29:15.966Z,73.33
2019-03-15T12:31:45.524Z,73.66
2019-03-15T12:34:14.945Z,73.48
2019-03-15T12:36:44.357Z,73.37
2019-03-15T12:39:13.714Z,72.65
2019-03-15T12:41:43.092Z,72.22
2019-03-15T12:44:12.599Z,70.95
2019-03-15T12:46:41.926Z,69.99
2019-03-15T12:49:11.362Z,69.69
2019-03-15T12:51:40.767Z,68.78
2019-03-15T12:54:10.236Z,68.23
2019-03-15T12:56:52.945Z,67.89
2019-03-15T12:59:10.952Z,66.34
2019-03-15T13:01:40.417Z,67.27
2019-03-15T13:04:09.850Z,67.31
2019-03-15T13:06:39.393Z,67.17
2019-03-15T13:09:08.765Z,68.20
2019-03-15T13:11:38.222Z,66.86
2019-03-15T13:14:07.807Z,66.67
2019-03-15T13:16:37.151Z,66.89
2019-03-15T13:19:06.514Z,67.35
2019-03-15T13:21:35.902Z,68.99
2019-03-15T13:24:05.281Z,69.10
2019-03-15T13:26:34.679Z,69.65
2019-03-15T13:29:04.234Z,69.69
2019-03-15T13:31:33.759Z,69.49
2019-03-15T13:34:03.150Z,71.64
2019-03-15T13:36:32.684Z,71.66
2019-03-15T13:39:02.113Z,72.59
2019-03-15T13:41:31.520Z,73.48
2019-03-15T13:44:00.881Z,73.09
2019-03-15T13:46:30.245Z,73.16
2019-03-15T13:48:59.600Z,74.11
2019-03-15T13:51:29.152Z,73.87
2019-03-15T13:53:58.582Z,74.09
2019-03-15T13:56:27.970Z,73.23
2019-03-15T13:58:57.781Z,72.87
2019-03-15T14:01:27.199Z,73.14
2019-03-15T14:03:56.662Z,73.41
2019-03-15T14:06:26.188Z,74.34
2019-03-15T14:08:55.645Z,75.62
2019-03-15T14:11:25.024Z,75.50
2019-03-15T14:13:54.571Z,76.47
2019-03-15T14:16:23.958Z,77.43
2019-03-15T14:18:53.400Z,77.74
2019-03-15T14:21:22.756Z,77.19
2019-03-15T14:23:52.177Z,76.78
2019-03-15T14:26:21.651Z,77.36
2019-03-15T14:28:51.108Z,77.95
2019-03-15T14:31:21.743Z,78.27
2019-03-15T14:33:51.319Z,78.06
2019-03-15T14:36:20.619Z,77.69
2019-03-15T14:38:50.099Z,77.67
2019-03-15T14:41:19.575Z,77.83
2019-03-15T14:43:49.202Z,77.75
2019-03-15T14:46:18.617Z,78.42
2019-03-15T14:48:48.018Z,77.87
2019-03-15T14:51:17.386Z,77.28
2019-03-15T14:53:46.858Z,78.10
2019-03-15T14:56:16.211Z,77.37
2019-03-15T14:58:45.567Z,77.12
2019-03-15T15:01:14.919Z,77.36
2019-03-15T15:03:44.346Z,78.03
2019-03-15T15:06:13.874Z,78.55
2019-03-15T15:08:43.228Z,78.23
2019-03-15T15:11:12.753Z,78.12
2019-03-15T15:13:42.353Z,77.91
2019-03-15T15:16:11.705Z,78.52
2019-03-15T15:18:41.110Z,78.20
2019-03-15T15:21:10.529Z,78.59
2019-03-15T15:23:39.968Z,78.79
2019-03-15T15:26:09.378Z,79.31
2019-03-15T15:28:39.617Z,80.01
2019-03-15T15:31:09.015Z,80.41
2019-03-15T15:33:38.402Z,80.55
2019-03-15T15:36:07.793Z,80.88
2019-03-15T15:38:37.251Z,80.59
2019-03-15T15:41:06.627Z,81.20
2019-03-15T15:43:36.118Z,81.06
2019-03-15T15:46:05.540Z,81.17
2019-03-15T15:48:35.095Z,80.92
2019-03-15T15:51:04.454Z,81.00
2019-03-15T15:53:33.890Z,81.00
2019-03-15T15:56:03.434Z,81.17
2019-03-15T15:58:32.857Z,81.38
2019-03-15T16:01:02.266Z,80.70
2019-03-15T16:03:31.674Z,80.77
2019-03-15T16:06:01.316Z,80.78
2019-03-15T16:08:30.946Z,80.73
2019-03-15T16:11:00.379Z,80.57
2019-03-15T16:13:29.720Z,81.12
2019-03-15T16:15:59.146Z,80.90
2019-03-15T16:18:28.593Z,81.23
2019-03-15T16:20:57.927Z,81.31
2019-03-15T16:23:30.180Z,81.04
2019-03-15T16:25:58.662Z,81.06
2019-03-15T16:28:31.839Z,81.59
2019-03-15T16:30:59.267Z,80.95
2019-03-15T16:33:28.637Z,81.14
2019-03-15T16:35:58.142Z,81.61
2019-03-15T16:38:27.591Z,81.62
2019-03-15T16:40:57.003Z,81.31
2019-03-15T16:43:26.436Z,81.85
2019-03-15T16:45:55.850Z,81.53
2019-03-15T16:48:25.338Z,82.38
2019-03-15T16:50:54.730Z,83.54
2019-03-15T16:53:24.207Z,83.54
2019-03-15T16:55:53.793Z,83.97
2019-03-15T16:58:23.174Z,84.14
2019-03-15T17:00:52.400Z,84.79
2019-03-15T17:03:21.875Z,84.91
2019-03-15T17:05:51.446Z,84.50
2019-03-15T17:08:20.860Z,84.60
2019-03-15T17:10:50.322Z,84.81
2019-03-15T17:13:19.689Z,85.13
2019-03-15T17:15:49.063Z,85.08
2019-03-15T17:18:18.425Z,85.09
2019-03-15T17:20:47.819Z,84.95
2019-03-15T17:23:17.416Z,85.70
2019-03-15T17:25:46.825Z,85.78
2019-03-15T17:28:16.318Z,85.64
2019-03-15T17:30:45.861Z,85.78
2019-03-15T17:33:15.460Z,86.31
2019-03-15T17:35:44.980Z,86.17
2019-03-15T17:38:14.356Z,86.34
2019-03-15T17:40:43.819Z,86.40
2019-03-15T17:43:13.266Z,86.26
2019-03-15T17:45:42.692Z,85.55
2019-03-15T17:48:12.108Z,85.61
2019-03-15T17:50:41.609Z,85.60
2019-03-15T17:53:11.316Z,85.52
2019-03-15T17:55:40.925Z,84.99
2019-03-15T17:58:10.330Z,84.71
2019-03-15T18:00:42.129Z,84.71
2019-03-15T18:03:20.490Z,84.51
2019-03-15T18:05:42.868Z,84.59
2019-03-15T18:08:12.325Z,84.19
2019-03-15T18:10:41.940Z,84.30
2019-03-15T18:13:11.401Z,84.17
2019-03-15T18:15:40.893Z,84.02
2019-03-15T18:18:10.437Z,84.30
2019-03-15T18:20:39.922Z,84.51
2019-03-15T18:23:09.268Z,84.94
2019-03-15T18:25:38.742Z,84.66
2019-03-15T18:28:08.241Z,84.41
2019-03-15T18:30:37.593Z,84.46
2019-03-15T18:33:07.296Z,84.65
2019-03-15T18:35:36.670Z,85.03
2019-03-15T18:38:06.193Z,85.08
2019-03-15T18:40:35.834Z,84.88
2019-03-15T18:43:05.239Z,84.76
2019-03-15T18:45:34.605Z,84.54
2019-03-15T18:48:04.007Z,84.49
2019-03-15T18:50:33.395Z,84.93
2019-03-15T18:53:02.805Z,84.62
2019-03-15T18:55:32.445Z,84.51
2019-03-15T18:58:01.807Z,84.74
2019-03-15T19:00:31.157Z,84.52
2019-03-15T19:03:00.833Z,84.72
2019-03-15T19:05:30.234Z,84.93
2019-03-15T19:07:59.707Z,84.42
2019-03-15T19:10:29.117Z,84.41
2019-03-15T19:12:58.504Z,84.33
2019-03-15T19:15:27.985Z,84.13
2019-03-15T19:17:57.403Z,83.74
2019-03-15T19:20:26.913Z,84.00
2019-03-15T19:22:56.260Z,83.63
2019-03-15T19:25:25.625Z,83.54
2019-03-15T19:27:55.134Z,84.18
2019-03-15T19:30:24.493Z,83.70
2019-03-15T19:32:53.979Z,83.91
2019-03-15T19:35:23.429Z,83.99
2019-03-15T19:37:52.819Z,84.49
2019-03-15T19:40:22.209Z,84.43
2019-03-15T19:42:51.712Z,84.27
2019-03-15T19:45:21.169Z,84.19
2019-03-15T19:47:50.618Z,84.43
2019-03-15T19:50:20.040Z,84.56
2019-03-15T19:52:49.462Z,84.53
2019-03-15T19:55:18.839Z,84.50
2019-03-15T19:57:48.403Z,84.33
2019-03-15T20:00:17.911Z,84.31
2019-03-15T20:02:48.642Z,84.38
2019-03-15T20:05:18.129Z,84.46
2019-03-15T20:07:47.677Z,84.81
2019-03-15T20:10:17.543Z,85.45
2019-03-15T20:12:46.910Z,85.51
2019-03-15T20:15:16.445Z,85.72
2019-03-15T20:17:45.886Z,85.36
2019-03-15T20:20:15.463Z,85.17
2019-03-15T20:22:44.978Z,84.96
2019-03-15T20:25:17.973Z,85.16
2019-03-15T20:27:47.435Z,85.05
2019-03-15T20:30:21.486Z,84.96
2019-03-15T20:32:48.362Z,85.10
2019-03-15T20:35:17.689Z,84.86
2019-03-15T20:37:48.519Z,84.95
2019-03-15T20:40:17.876Z,84.98
2019-03-15T20:42:47.193Z,84.94
2019-03-15T20:45:16.863Z,84.86
2019-03-15T20:47:46.264Z,84.95
2019-03-15T20:50:15.999Z,84.71
2019-03-15T20:52:45.470Z,84.68
2019-03-15T20:55:15.285Z,85.08
2019-03-15T20:57:44.853Z,85.26
2019-03-15T21:00:15.157Z,85.18
2019-03-15T21:02:44.535Z,85.12
2019-03-15T21:05:13.938Z,85.04
2019-03-15T21:07:44.173Z,85.13
2019-03-15T21:10:13.736Z,85.11
2019-03-15T21:12:45.246Z,84.93
2019-03-15T21:15:14.638Z,84.99
2019-03-15T21:17:44.044Z,85.20
2019-03-15T21:20:14.041Z,85.19
2019-03-15T21:22:43.834Z,85.11
2019-03-15T21:25:13.283Z,85.23
2019-03-15T21:27:53.016Z,85.56
2019-03-15T21:30:15.107Z,85.30
2019-03-15T21:32:44.590Z,85.43
2019-03-15T21:35:14.103Z,85.54
2019-03-15T21:37:43.502Z,85.49
2019-03-15T21:40:12.876Z,85.26
2019-03-15T21:42:42.288Z,85.22
2019-03-15T21:45:11.864Z,85.47
2019-03-15T21:47:41.295Z,85.45
2019-03-15T21:50:12.003Z,85.17
2019-03-15T21:52:41.402Z,85.42
2019-03-15T21:55:10.804Z,85.83
2019-03-15T21:57:40.251Z,85.77
2019-03-15T22:00:11.079Z,85.87
2019-03-15T22:02:40.470Z,85.54
2019-03-15T22:05:10.041Z,85.28
2019-03-15T22:07:39.528Z,85.40
2019-03-15T22:10:09.804Z,85.69
2019-03-15T22:12:39.303Z,85.56
2019-03-15T22:15:08.803Z,85.60
2019-03-15T22:17:38.402Z,85.40
2019-03-15T22:20:09.260Z,85.67
2019-03-15T22:22:38.600Z,85.54
2019-03-15T22:25:08.005Z,85.73
2019-03-15T22:27:37.509Z,85.63
2019-03-15T22:30:06.893Z,85.42
2019-03-15T22:32:36.266Z,85.75
2019-03-15T22:35:05.944Z,85.51
2019-03-15T22:37:35.311Z,86.09
2019-03-15T22:40:04.852Z,86.06
2019-03-15T22:42:34.239Z,85.96
2019-03-15T22:45:03.598Z,85.99
2019-03-15T22:47:33.043Z,85.81
2019-03-15T22:50:02.415Z,86.13
2019-03-15T22:52:31.769Z,85.69
2019-03-15T22:55:01.153Z,85.83
2019-03-15T22:57:30.513Z,85.78
2019-03-15T22:59:59.899Z,85.74
2019-03-15T23:02:29.358Z,85.78
2019-03-15T23:04:58.707Z,85.27
2019-03-15T23:07:28.094Z,84.82
2019-03-15T23:09:57.454Z,84.64
2019-03-15T23:12:26.848Z,84.43
2019-03-15T23:14:56.329Z,84.32
2019-03-15T23:17:25.738Z,84.42
2019-03-15T23:19:55.078Z,85.49
2019-03-15T23:22:24.515Z,85.18
2019-03-15T23:24:53.920Z,85.45
2019-03-15T23:27:23.381Z,85.45
2019-03-15T23:29:52.808Z,85.41
2019-03-15T23:32:22.220Z,85.14
2019-03-15T23:34:51.686Z,85.17
2019-03-15T23:37:21.256Z,85.34
2019-03-15T23:39:50.716Z,85.43
2019-03-15T23:42:20.047Z,85.63
2019-03-15T23:44:49.468Z,85.89
2019-03-15T23:47:18.852Z,86.22
2019-03-15T23:49:48.253Z,86.89
2019-03-15T23:52:17.616Z,86.63
2019-03-15T23:54:46.963Z,86.56
2019-03-15T23:57:16.335Z,86.47
2019-03-15T23:59:45.680Z,86.42
